Gray Mountain, Arizona
Current Conditions -  °F | °C
As of 10:54 PM on Sunday 25 Jan 2015 (Local Time) from KGCN Reporting Station
Clear Clear  
Wind Chill: 30°   Ceiling: Unl
Heat Index: 34°   Visibility: 10mi
Dew Point: 20°   Wind: 5mph
Humidity: 56%   Direction: NA
Pressure: 30.36"   Gusts: NA
Location:  35.75°N, 111.48°W
Report Text: KGCN 260554Z AUTO VRB04KT 10SM CLR 01/M07 A3036 RMK AO2 SLP252 T00111067 10106 21022 53005 $
Loading
Personal Weather Stations






























Interactive Weather Map New forecast layout! Learn more

10-Day Weather Forecast

Advertisements
Track Severe Weather on mobile